createdAt,value
2023-02-25T00:02:07.782Z,3.25
2023-02-25T00:04:35.956Z,3.15
2023-02-25T00:07:04.208Z,2.83
2023-02-25T00:09:34.991Z,3.50
2023-02-25T00:12:07.242Z,3.00
2023-02-25T00:14:37.614Z,2.90
2023-02-25T00:17:06.349Z,3.58
2023-02-25T00:19:34.761Z,3.90
2023-02-25T00:22:03.702Z,3.20
2023-02-25T00:24:32.140Z,3.65
2023-02-25T00:27:02.187Z,3.47
2023-02-25T00:29:33.055Z,4.35
2023-02-25T00:32:01.354Z,3.95
2023-02-25T00:34:31.625Z,3.25
2023-02-25T00:37:04.108Z,3.95
2023-02-25T00:42:19.582Z,3.90
2023-02-25T00:44:49.232Z,3.63
2023-02-25T00:47:18.960Z,3.30
2023-02-25T00:49:48.737Z,4.00
2023-02-25T00:52:17.413Z,3.67
2023-02-25T00:54:46.486Z,3.95
2023-02-25T00:57:15.879Z,3.58
2023-02-25T00:59:50.283Z,4.32
2023-02-25T01:02:24.254Z,3.47
2023-02-25T01:04:52.164Z,3.55
2023-02-25T01:07:23.298Z,3.63
2023-02-25T01:09:51.076Z,3.65
2023-02-25T01:12:23.609Z,3.85
2023-02-25T01:14:51.218Z,2.88
2023-02-25T01:17:23.929Z,2.95
2023-02-25T01:19:55.259Z,3.40
2023-02-25T01:22:26.786Z,3.95
2023-02-25T01:25:00.356Z,3.17
2023-02-25T01:27:32.640Z,2.90
2023-02-25T01:30:00.446Z,2.90
2023-02-25T01:32:28.032Z,2.38
2023-02-25T01:34:57.048Z,3.33
2023-02-25T01:37:26.558Z,3.38
2023-02-25T01:40:01.764Z,2.67
2023-02-25T01:42:37.071Z,2.88
2023-02-25T01:45:20.661Z,3.50
2023-02-25T01:48:00.351Z,3.45
2023-02-25T01:50:34.688Z,2.95
2023-02-25T01:53:06.921Z,3.35
2023-02-25T01:55:39.484Z,3.35
2023-02-25T01:58:12.982Z,3.30
2023-02-25T02:00:43.156Z,4.03
2023-02-25T02:03:18.459Z,3.45
2023-02-25T02:06:01.722Z,3.17
2023-02-25T02:08:29.978Z,3.70
2023-02-25T02:11:02.131Z,3.28
2023-02-25T02:13:39.969Z,3.45
2023-02-25T02:16:29.815Z,3.53
2023-02-25T02:19:00.123Z,3.60
2023-02-25T02:21:39.192Z,3.42
2023-02-25T02:24:29.750Z,3.75
2023-02-25T02:27:01.304Z,3.80
2023-02-25T02:29:59.996Z,3.55
2023-02-25T02:33:12.809Z,3.45
2023-02-25T02:35:59.291Z,3.97
2023-02-25T02:38:42.922Z,3.75
2023-02-25T02:41:26.281Z,3.50
2023-02-25T02:44:03.563Z,3.28
2023-02-25T02:46:55.795Z,3.38
2023-02-25T02:50:08.084Z,3.13
2023-02-25T02:52:43.665Z,3.58
2023-02-25T02:55:29.103Z,3.10
2023-02-25T02:58:07.935Z,3.67
2023-02-25T03:03:39.231Z,3.05
2023-02-25T03:06:22.349Z,2.75
2023-02-25T03:08:58.643Z,3.00
2023-02-25T03:11:26.955Z,3.97
2023-02-25T03:13:58.693Z,2.65
2023-02-25T03:16:59.772Z,3.78
2023-02-25T03:19:48.714Z,3.38
2023-02-25T03:22:27.934Z,2.70
2023-02-25T03:25:36.462Z,2.65
2023-02-25T03:28:29.047Z,3.13
2023-02-25T03:31:26.761Z,3.00
2023-02-25T03:34:11.193Z,3.42
2023-02-25T03:36:45.770Z,3.47
2023-02-25T03:41:57.176Z,2.90
2023-02-25T03:44:29.985Z,3.03
2023-02-25T03:49:59.290Z,3.05
2023-02-25T03:52:28.049Z,3.20
2023-02-25T03:54:57.887Z,2.83
2023-02-25T03:57:30.068Z,2.92
2023-02-25T03:59:59.708Z,3.78
2023-02-25T04:02:33.834Z,3.35
2023-02-25T04:05:04.675Z,2.70
2023-02-25T04:07:39.454Z,2.88
2023-02-25T04:10:11.547Z,2.85
2023-02-25T04:12:45.560Z,3.38
2023-02-25T04:15:14.498Z,3.22
2023-02-25T04:17:42.183Z,3.30
2023-02-25T04:20:11.789Z,3.60
2023-02-25T04:22:39.743Z,3.42
2023-02-25T04:25:11.065Z,3.45
2023-02-25T04:27:39.156Z,4.35
2023-02-25T04:30:08.878Z,4.15
2023-02-25T04:32:41.826Z,3.92
2023-02-25T04:35:13.517Z,2.95
2023-02-25T04:37:43.718Z,4.00
2023-02-25T04:40:19.038Z,3.65
2023-02-25T04:42:48.207Z,3.28
2023-02-25T04:45:16.731Z,3.72
2023-02-25T04:47:44.872Z,3.53
2023-02-25T04:50:13.679Z,3.65
2023-02-25T04:52:44.481Z,3.17
2023-02-25T04:55:12.392Z,3.85
2023-02-25T04:57:42.574Z,4.47
2023-02-25T05:00:19.447Z,4.00
2023-02-25T05:02:48.345Z,3.85
2023-02-25T05:05:16.922Z,3.40
2023-02-25T05:07:44.617Z,4.03
2023-02-25T05:10:17.406Z,3.38
2023-02-25T05:12:45.245Z,3.40
2023-02-25T05:15:13.929Z,3.10
2023-02-25T05:17:43.149Z,3.05
2023-02-25T05:20:18.400Z,3.38
2023-02-25T05:22:46.190Z,3.60
2023-02-25T05:25:18.060Z,4.28
2023-02-25T05:27:46.016Z,4.38
2023-02-25T05:30:34.204Z,4.15
2023-02-25T05:33:03.755Z,3.55
2023-02-25T05:35:32.828Z,4.65
2023-02-25T05:38:01.751Z,4.00
2023-02-25T05:40:33.447Z,3.83
2023-02-25T05:43:14.617Z,3.85
2023-02-25T05:45:49.657Z,4.10
2023-02-25T05:48:23.995Z,3.97
2023-02-25T05:51:04.271Z,3.80
2023-02-25T05:53:35.241Z,4.13
2023-02-25T05:56:10.477Z,4.35
2023-02-25T05:58:44.035Z,3.42
2023-02-25T06:01:18.446Z,4.10
2023-02-25T06:03:49.514Z,4.00
2023-02-25T06:06:28.130Z,4.00
2023-02-25T06:08:56.691Z,4.05
2023-02-25T06:11:29.781Z,3.85
2023-02-25T06:13:58.548Z,3.97
2023-02-25T06:16:39.967Z,3.83
2023-02-25T06:19:10.071Z,3.80
2023-02-25T06:21:50.239Z,3.70
2023-02-25T06:24:23.090Z,3.67
2023-02-25T06:29:19.543Z,4.03
2023-02-25T06:31:48.339Z,4.28
2023-02-25T06:34:22.069Z,3.95
2023-02-25T06:36:50.228Z,3.65
2023-02-25T06:39:19.404Z,3.78
2023-02-25T06:41:47.255Z,3.25
2023-02-25T06:44:22.101Z,3.58
2023-02-25T06:46:53.801Z,4.05
2023-02-25T06:49:25.537Z,3.75
2023-02-25T06:51:53.285Z,3.42
2023-02-25T06:54:24.989Z,4.07
2023-02-25T06:56:53.532Z,3.38
2023-02-25T06:59:22.842Z,3.47
2023-02-25T07:01:59.491Z,3.25
2023-02-25T07:04:35.434Z,3.83
2023-02-25T07:07:03.160Z,3.05
2023-02-25T07:09:32.365Z,3.97
2023-02-25T07:12:08.626Z,4.15
2023-02-25T07:14:39.138Z,4.03
2023-02-25T07:17:18.540Z,3.28
2023-02-25T07:19:51.228Z,4.47
2023-02-25T07:22:26.386Z,4.28
2023-02-25T07:24:57.007Z,3.95
2023-02-25T07:27:25.470Z,3.10
2023-02-25T07:29:55.116Z,3.50
2023-02-25T07:32:27.271Z,2.70
2023-02-25T07:34:56.944Z,2.97
2023-02-25T07:37:24.610Z,2.97
2023-02-25T07:39:59.988Z,2.72
2023-02-25T07:42:30.510Z,2.90
2023-02-25T07:44:59.834Z,2.58
2023-02-25T07:47:28.495Z,3.03
2023-02-25T07:49:55.842Z,2.97
2023-02-25T07:52:26.231Z,3.40
2023-02-25T07:54:53.731Z,3.20
2023-02-25T07:57:21.789Z,3.25
2023-02-25T07:59:51.501Z,3.40
2023-02-25T08:02:24.703Z,3.65
2023-02-25T08:04:52.717Z,2.88
2023-02-25T08:07:21.700Z,3.17
2023-02-25T08:09:49.248Z,3.00
2023-02-25T08:12:16.889Z,3.17
2023-02-25T08:14:45.852Z,3.42
2023-02-25T08:17:16.133Z,3.35
2023-02-25T08:19:43.694Z,3.40
2023-02-25T08:22:12.044Z,3.72
2023-02-25T08:24:40.630Z,3.60
2023-02-25T08:27:11.372Z,3.67
2023-02-25T08:29:39.200Z,3.90
2023-02-25T08:32:07.659Z,3.53
2023-02-25T08:34:35.384Z,3.30
2023-02-25T08:37:02.892Z,3.97
2023-02-25T08:39:31.170Z,4.38
2023-02-25T08:41:58.791Z,4.00
2023-02-25T08:44:26.195Z,4.80
2023-02-25T08:46:56.097Z,4.22
2023-02-25T08:49:26.497Z,3.95
2023-02-25T08:51:55.461Z,4.45
2023-02-25T08:54:23.208Z,4.75
2023-02-25T08:56:55.475Z,4.68
2023-02-25T08:59:22.979Z,4.40
2023-02-25T09:01:52.125Z,4.05
2023-02-25T09:04:23.025Z,4.57
2023-02-25T09:06:53.971Z,3.97
2023-02-25T09:09:22.683Z,4.40
2023-02-25T09:11:58.354Z,4.45
2023-02-25T09:14:30.590Z,4.15
2023-02-25T09:17:02.847Z,4.25
2023-02-25T09:19:30.537Z,3.50
2023-02-25T09:21:57.888Z,3.60
2023-02-25T09:24:30.185Z,3.85
2023-02-25T09:26:58.117Z,4.47
2023-02-25T09:29:25.660Z,4.40
2023-02-25T09:31:55.093Z,3.80
2023-02-25T09:34:22.652Z,4.05
2023-02-25T09:36:51.203Z,1.90
2023-02-25T09:39:18.646Z,2.47
2023-02-25T09:42:09.924Z,2.50
2023-02-25T09:45:00.097Z,2.75
2023-02-25T09:47:34.200Z,2.70
2023-02-25T09:50:21.582Z,2.78
2023-02-25T09:53:11.088Z,2.20
2023-02-25T09:55:46.621Z,2.88
2023-02-25T09:58:51.823Z,3.08
2023-02-25T10:01:42.498Z,3.53
2023-02-25T10:04:57.660Z,3.85
2023-02-25T10:07:35.022Z,3.70
2023-02-25T10:10:17.488Z,3.75
2023-02-25T10:13:18.096Z,3.28
2023-02-25T10:15:58.444Z,3.47
2023-02-25T10:18:48.062Z,3.92
2023-02-25T10:21:36.875Z,3.20
2023-02-25T10:24:23.710Z,3.63
2023-02-25T10:27:07.810Z,3.28
2023-02-25T10:29:46.555Z,2.83
2023-02-25T10:32:23.967Z,2.47
2023-02-25T10:34:54.875Z,2.60
2023-02-25T10:37:30.047Z,2.65
2023-02-25T10:40:00.619Z,2.40
2023-02-25T10:42:29.268Z,2.53
2023-02-25T10:45:09.904Z,2.65
2023-02-25T10:47:40.785Z,2.88
2023-02-25T10:50:38.829Z,1.23
2023-02-25T10:53:18.323Z,1.40
2023-02-25T10:55:53.635Z,1.30
2023-02-25T10:58:48.309Z,1.40
2023-02-25T11:01:21.691Z,1.33
2023-02-25T11:04:03.289Z,1.17
2023-02-25T11:06:33.112Z,1.42
2023-02-25T11:09:02.583Z,1.60
2023-02-25T11:11:37.257Z,1.70
2023-02-25T11:14:16.051Z,1.80
2023-02-25T11:16:45.261Z,1.95
2023-02-25T11:19:25.580Z,2.05
2023-02-25T11:21:54.280Z,2.10
2023-02-25T11:24:35.828Z,1.65
2023-02-25T11:27:06.929Z,2.17
2023-02-25T11:29:38.416Z,1.85
2023-02-25T11:32:15.359Z,1.70
2023-02-25T11:34:50.613Z,1.80
2023-02-25T11:37:36.895Z,1.98
2023-02-25T11:40:21.908Z,1.90
2023-02-25T11:43:05.817Z,1.88
2023-02-25T11:46:00.852Z,1.90
2023-02-25T11:48:41.303Z,1.98
2023-02-25T11:51:30.619Z,1.98
2023-02-25T11:54:19.632Z,2.10
2023-02-25T11:57:11.120Z,1.83
2023-02-25T12:00:02.820Z,1.80
2023-02-25T12:02:38.794Z,1.95
2023-02-25T12:05:45.801Z,1.83
2023-02-25T12:08:33.038Z,1.75
2023-02-25T12:11:29.034Z,2.00
2023-02-25T12:14:30.973Z,1.40
2023-02-25T12:17:37.507Z,1.52
2023-02-25T12:20:26.555Z,1.10
2023-02-25T12:23:17.907Z,1.83
2023-02-25T12:26:08.348Z,1.63
2023-02-25T12:29:07.454Z,1.80
2023-02-25T12:32:14.631Z,1.73
2023-02-25T12:35:16.657Z,1.85
2023-02-25T12:38:06.225Z,1.80
2023-02-25T12:41:04.268Z,2.25
2023-02-25T12:43:54.493Z,2.00
2023-02-25T12:46:53.954Z,1.98
2023-02-25T12:49:22.161Z,1.70
2023-02-25T12:52:19.497Z,1.90
2023-02-25T12:55:14.395Z,1.90
2023-02-25T12:58:10.462Z,1.73
2023-02-25T13:01:13.264Z,1.90
2023-02-25T13:04:00.626Z,2.10
2023-02-25T13:06:43.128Z,2.10
2023-02-25T13:09:15.599Z,2.13
2023-02-25T13:12:24.214Z,1.98
2023-02-25T13:15:25.853Z,1.52
2023-02-25T13:18:12.301Z,2.03
2023-02-25T13:21:04.085Z,2.00
2023-02-25T13:23:56.320Z,2.15
2023-02-25T13:26:48.561Z,1.42
2023-02-25T13:29:52.981Z,1.55
2023-02-25T13:32:27.756Z,2.15
2023-02-25T13:35:30.344Z,1.55
2023-02-25T13:38:47.402Z,1.88
2023-02-25T13:41:18.929Z,2.10
2023-02-25T13:44:21.736Z,2.08
2023-02-25T13:46:53.197Z,2.15
2023-02-25T13:49:42.537Z,2.30
2023-02-25T13:53:00.340Z,2.28
2023-02-25T13:55:57.485Z,2.40
2023-02-25T13:58:45.083Z,2.20
2023-02-25T14:01:22.882Z,2.25
2023-02-25T14:04:09.167Z,2.35
2023-02-25T14:07:21.409Z,2.05
2023-02-25T14:10:01.056Z,2.22
2023-02-25T14:12:50.950Z,2.28
2023-02-25T14:15:53.152Z,2.10
2023-02-25T14:18:44.948Z,1.90
2023-02-25T14:21:34.200Z,2.55
2023-02-25T14:24:34.867Z,2.20
2023-02-25T14:27:14.984Z,2.25
2023-02-25T14:29:42.678Z,2.05
2023-02-25T14:32:19.317Z,2.13
2023-02-25T14:34:50.550Z,2.30
2023-02-25T14:37:32.716Z,2.42
2023-02-25T14:40:20.329Z,2.40
2023-02-25T14:43:08.526Z,2.55
2023-02-25T14:45:52.362Z,1.98
2023-02-25T14:48:58.315Z,2.20
2023-02-25T14:52:02.574Z,2.00
2023-02-25T14:55:08.021Z,2.45
2023-02-25T14:57:53.941Z,2.60
2023-02-25T15:00:38.637Z,2.22
2023-02-25T15:03:26.142Z,2.20
2023-02-25T15:06:09.472Z,2.33
2023-02-25T15:09:07.755Z,2.30
2023-02-25T15:12:02.608Z,2.60
2023-02-25T15:14:45.313Z,2.45
2023-02-25T15:17:19.201Z,2.60
2023-02-25T15:20:04.417Z,2.33
2023-02-25T15:22:33.001Z,2.90
2023-02-25T15:25:23.702Z,2.22
2023-02-25T15:28:00.194Z,2.58
2023-02-25T15:30:31.593Z,2.30
2023-02-25T15:33:17.626Z,3.20
2023-02-25T15:35:56.127Z,2.40
2023-02-25T15:38:41.430Z,2.47
2023-02-25T15:41:36.009Z,2.22
2023-02-25T15:44:18.195Z,2.55
2023-02-25T15:46:49.605Z,2.40
2023-02-25T15:49:31.423Z,2.20
2023-02-25T15:52:03.216Z,2.10
2023-02-25T15:54:31.495Z,2.25
2023-02-25T15:57:00.320Z,2.20
2023-02-25T15:59:55.909Z,1.80
2023-02-25T16:02:29.482Z,2.15
2023-02-25T16:05:25.158Z,2.03
2023-02-25T16:08:23.708Z,1.85
2023-02-25T16:10:54.620Z,2.35
2023-02-25T16:13:30.426Z,2.13
2023-02-25T16:15:58.154Z,2.15
2023-02-25T16:18:40.289Z,2.28
2023-02-25T16:21:21.816Z,1.98
2023-02-25T16:23:49.365Z,2.03
2023-02-25T16:26:58.482Z,2.03
2023-02-25T16:29:50.790Z,2.10
2023-02-25T16:32:26.100Z,2.45
2023-02-25T16:35:05.865Z,2.38
2023-02-25T16:37:46.777Z,2.28
2023-02-25T16:40:23.984Z,2.42
2023-02-25T16:42:52.566Z,2.03
2023-02-25T16:45:48.610Z,1.98
2023-02-25T16:48:18.706Z,1.70
2023-02-25T16:50:47.965Z,1.98
2023-02-25T16:53:22.074Z,2.63
2023-02-25T16:55:50.807Z,2.38
2023-02-25T16:58:27.793Z,2.33
2023-02-25T17:01:21.390Z,2.00
2023-02-25T17:03:48.744Z,2.17
2023-02-25T17:06:18.612Z,2.55
2023-02-25T17:08:47.797Z,2.10
2023-02-25T17:11:22.534Z,2.22
2023-02-25T17:13:51.940Z,2.05
2023-02-25T17:16:49.325Z,2.65
2023-02-25T17:19:20.585Z,3.25
2023-02-25T17:21:54.978Z,2.33
2023-02-25T17:24:27.820Z,2.25
2023-02-25T17:29:37.766Z,2.78
2023-02-25T17:32:35.421Z,2.38
2023-02-25T17:35:05.912Z,2.47
2023-02-25T17:37:34.200Z,2.30
2023-02-25T17:40:01.932Z,2.35
2023-02-25T17:42:35.935Z,2.80
2023-02-25T17:45:08.642Z,2.50
2023-02-25T17:47:38.157Z,2.00
2023-02-25T17:50:31.064Z,2.08
2023-02-25T17:53:01.414Z,2.08
2023-02-25T17:55:34.247Z,2.80
2023-02-25T18:00:35.020Z,2.75
2023-02-25T18:03:22.182Z,2.30
2023-02-25T18:05:56.586Z,2.78
2023-02-25T18:08:28.564Z,1.90
2023-02-25T18:11:29.935Z,2.10
2023-02-25T18:13:57.311Z,2.42
2023-02-25T18:16:41.629Z,2.20
2023-02-25T18:19:40.820Z,2.35
2023-02-25T18:22:24.049Z,2.38
2023-02-25T18:24:58.195Z,2.50
2023-02-25T18:27:32.424Z,2.33
2023-02-25T18:30:18.209Z,1.88
2023-02-25T18:32:47.743Z,2.05
2023-02-25T18:35:16.020Z,2.63
2023-02-25T18:37:47.173Z,2.58
2023-02-25T18:40:31.256Z,2.50
2023-02-25T18:42:59.695Z,2.15
2023-02-25T18:45:28.749Z,2.25
2023-02-25T18:47:57.115Z,2.75
2023-02-25T18:50:25.884Z,2.97
2023-02-25T18:52:54.408Z,3.00
2023-02-25T18:55:27.757Z,3.00
2023-02-25T18:57:55.892Z,3.22
2023-02-25T19:00:25.273Z,2.97
2023-02-25T19:03:01.474Z,2.88
2023-02-25T19:05:29.790Z,3.15
2023-02-25T19:07:57.260Z,3.33
2023-02-25T19:10:30.874Z,3.30
2023-02-25T19:13:04.972Z,2.90
2023-02-25T19:15:35.470Z,3.17
2023-02-25T19:18:02.782Z,3.08
2023-02-25T19:20:30.385Z,3.42
2023-02-25T19:23:00.716Z,4.00
2023-02-25T19:25:32.274Z,3.67
2023-02-25T19:27:59.782Z,4.28
2023-02-25T19:30:31.381Z,3.33
2023-02-25T19:33:03.547Z,3.88
2023-02-25T19:35:34.121Z,4.05
2023-02-25T19:38:01.777Z,4.53
2023-02-25T19:40:29.547Z,4.47
2023-02-25T19:42:57.563Z,4.00
2023-02-25T19:45:26.073Z,4.47
2023-02-25T19:47:55.456Z,4.00
2023-02-25T19:50:24.912Z,4.65
2023-02-25T19:52:56.326Z,4.55
2023-02-25T19:55:26.059Z,6.00
2023-02-25T19:57:54.287Z,6.32
2023-02-25T20:00:24.162Z,6.57
2023-02-25T20:02:53.894Z,7.00
2023-02-25T20:05:22.480Z,6.07
2023-02-25T20:07:50.706Z,5.38
2023-02-25T20:10:18.425Z,5.63
2023-02-25T20:12:47.280Z,4.95
2023-02-25T20:15:17.703Z,4.88
2023-02-25T20:17:46.644Z,4.70
2023-02-25T20:20:15.195Z,5.70
2023-02-25T20:22:42.797Z,4.78
2023-02-25T20:25:11.562Z,4.55
2023-02-25T20:27:41.532Z,4.75
2023-02-25T20:30:10.589Z,4.88
2023-02-25T20:32:38.062Z,4.95
2023-02-25T20:35:05.851Z,5.20
2023-02-25T20:37:35.710Z,5.65
2023-02-25T20:40:08.080Z,6.78
2023-02-25T20:42:35.657Z,7.65
2023-02-25T20:45:03.675Z,7.43
2023-02-25T20:47:36.156Z,7.15
2023-02-25T20:50:05.556Z,7.18
2023-02-25T20:52:34.316Z,7.07
2023-02-25T20:55:01.726Z,6.95
2023-02-25T20:57:29.142Z,7.15
2023-02-25T20:59:57.796Z,6.90
2023-02-25T21:02:25.231Z,6.93
2023-02-25T21:04:52.635Z,6.63
2023-02-25T21:07:21.263Z,6.40
2023-02-25T21:09:48.639Z,6.47
2023-02-25T21:12:16.173Z,6.93
2023-02-25T21:14:52.167Z,6.25
2023-02-25T21:17:19.732Z,7.03
2023-02-25T21:19:47.082Z,7.15
2023-02-25T21:22:14.535Z,7.65
2023-02-25T21:24:43.711Z,7.68
2023-02-25T21:27:12.031Z,7.35
2023-02-25T21:29:39.544Z,7.90
2023-02-25T21:32:07.045Z,7.35
2023-02-25T21:34:35.433Z,6.93
2023-02-25T21:37:14.416Z,6.97
2023-02-25T21:39:45.036Z,6.90
2023-02-25T21:42:12.894Z,7.38
2023-02-25T21:44:46.791Z,7.40
2023-02-25T21:47:16.426Z,8.15
2023-02-25T21:49:45.765Z,7.22
2023-02-25T21:52:14.041Z,7.78
2023-02-25T21:54:41.359Z,6.82
2023-02-25T21:57:08.953Z,7.63
2023-02-25T21:59:36.454Z,6.72
2023-02-25T22:02:06.688Z,6.88
2023-02-25T22:04:34.547Z,6.60
2023-02-25T22:07:02.368Z,6.28
2023-02-25T22:09:31.628Z,5.85
2023-02-25T22:11:59.864Z,6.25
2023-02-25T22:14:28.668Z,6.35
2023-02-25T22:16:59.189Z,5.70
2023-02-25T22:19:31.933Z,5.78
2023-02-25T22:22:00.641Z,5.57
2023-02-25T22:24:28.100Z,5.65
2023-02-25T22:27:03.504Z,5.25
2023-02-25T22:29:31.345Z,5.47
2023-02-25T22:31:59.340Z,5.35
2023-02-25T22:34:27.456Z,5.38
2023-02-25T22:36:55.017Z,5.47
2023-02-25T22:39:22.515Z,5.32
2023-02-25T22:41:50.196Z,4.65
2023-02-25T22:44:17.593Z,4.70
2023-02-25T22:46:45.093Z,5.00
2023-02-25T22:49:12.714Z,4.93
2023-02-25T22:51:42.904Z,4.75
2023-02-25T22:54:16.410Z,4.72
2023-02-25T22:56:45.604Z,4.57
2023-02-25T22:59:13.698Z,4.13
2023-02-25T23:01:41.377Z,4.68
2023-02-25T23:04:08.727Z,4.75
2023-02-25T23:06:45.177Z,4.50
2023-02-25T23:09:16.432Z,4.10
2023-02-25T23:11:45.695Z,4.53
2023-02-25T23:14:14.230Z,4.60
2023-02-25T23:16:43.888Z,4.13
2023-02-25T23:19:15.981Z,4.88
2023-02-25T23:21:44.012Z,4.50
2023-02-25T23:24:19.549Z,5.03
2023-02-25T23:26:51.880Z,5.20
2023-02-25T23:29:19.708Z,5.60
2023-02-25T23:31:48.381Z,4.93
2023-02-25T23:34:24.490Z,5.20
2023-02-25T23:36:55.816Z,5.00
2023-02-25T23:39:23.437Z,5.28
2023-02-25T23:41:50.973Z,5.25
2023-02-25T23:44:20.920Z,4.82
2023-02-25T23:46:48.291Z,4.90
2023-02-25T23:49:24.629Z,4.68
2023-02-25T23:51:54.693Z,4.68
2023-02-25T23:54:22.925Z,4.47
2023-02-25T23:56:51.205Z,4.70
2023-02-25T23:59:19.012Z,4.80
